createdAt,value
2018-07-21T00:01:07.743Z,5.28
2018-07-21T00:03:37.136Z,5.00
2018-07-21T00:06:06.389Z,5.25
2018-07-21T00:08:35.610Z,4.85
2018-07-21T00:11:04.856Z,5.08
2018-07-21T00:13:34.061Z,5.00
2018-07-21T00:16:03.429Z,5.15
2018-07-21T00:18:32.804Z,4.80
2018-07-21T00:21:02.104Z,5.03
2018-07-21T00:23:31.355Z,4.62
2018-07-21T00:26:00.660Z,4.92
2018-07-21T00:28:29.877Z,4.87
2018-07-21T00:30:59.090Z,5.17
2018-07-21T00:33:28.297Z,5.00
2018-07-21T00:35:57.540Z,5.03
2018-07-21T00:38:26.717Z,5.10
2018-07-21T00:40:55.948Z,5.42
2018-07-21T00:43:25.113Z,5.12
2018-07-21T00:45:54.367Z,4.85
2018-07-21T00:48:23.590Z,5.37
2018-07-21T00:50:52.813Z,5.42
2018-07-21T00:53:22.156Z,4.97
2018-07-21T00:55:51.406Z,5.33
2018-07-21T00:58:20.608Z,4.78
2018-07-21T01:00:49.833Z,4.55
2018-07-21T01:03:19.049Z,5.37
2018-07-21T01:05:48.265Z,5.55
2018-07-21T01:08:17.465Z,5.20
2018-07-21T01:10:46.725Z,4.83
2018-07-21T01:13:16.094Z,4.97
2018-07-21T01:15:45.374Z,5.00
2018-07-21T01:18:14.629Z,4.83
2018-07-21T01:20:43.872Z,5.12
2018-07-21T01:23:13.080Z,5.10
2018-07-21T01:25:42.535Z,4.70
2018-07-21T01:28:11.729Z,5.20
2018-07-21T01:30:41.003Z,5.22
2018-07-21T01:33:10.212Z,4.70
2018-07-21T01:35:39.446Z,4.78
2018-07-21T01:38:08.653Z,5.17
2018-07-21T01:40:37.880Z,4.92
2018-07-21T01:43:07.081Z,5.40
2018-07-21T01:45:36.310Z,5.08
2018-07-21T01:48:29.078Z,5.35
2018-07-21T01:50:58.276Z,5.10
2018-07-21T01:53:42.756Z,4.90
2018-07-21T01:56:13.719Z,5.47
2018-07-21T01:58:46.529Z,5.42
2018-07-21T02:01:18.501Z,5.37
2018-07-21T02:03:55.136Z,5.20
2018-07-21T02:06:28.377Z,6.28
2018-07-21T02:08:57.581Z,5.85
2018-07-21T02:11:35.412Z,6.67
2018-07-21T02:14:05.708Z,6.33
2018-07-21T02:16:34.952Z,6.83
2018-07-21T02:19:04.629Z,6.87
2018-07-21T02:21:33.977Z,6.75
2018-07-21T02:24:03.447Z,7.55
2018-07-21T02:26:38.642Z,7.17
2018-07-21T02:29:08.645Z,6.95
2018-07-21T02:31:38.152Z,6.97
2018-07-21T02:34:12.186Z,6.28
2018-07-21T02:36:42.784Z,6.78
2018-07-21T02:39:12.754Z,7.25
2018-07-21T02:41:44.201Z,6.17
2018-07-21T02:44:14.663Z,6.30
2018-07-21T02:46:54.459Z,6.33
2018-07-21T02:49:26.235Z,6.20
2018-07-21T02:51:57.337Z,6.90
2018-07-21T02:54:33.308Z,6.78
2018-07-21T02:57:10.654Z,7.10
2018-07-21T02:59:39.865Z,7.30
2018-07-21T03:02:09.225Z,6.60
2018-07-21T03:04:38.449Z,6.28
2018-07-21T03:07:07.788Z,6.25
2018-07-21T03:09:37.036Z,5.65
2018-07-21T03:12:06.294Z,5.20
2018-07-21T03:14:35.543Z,5.17
2018-07-21T03:17:04.814Z,6.15
2018-07-21T03:19:34.034Z,6.40
2018-07-21T03:22:03.294Z,5.87
2018-07-21T03:24:32.527Z,5.70
2018-07-21T03:27:01.837Z,5.87
2018-07-21T03:29:31.048Z,6.72
2018-07-21T03:32:00.288Z,6.05
2018-07-21T03:34:29.528Z,5.72
2018-07-21T03:36:58.782Z,6.30
2018-07-21T03:39:27.995Z,6.97
2018-07-21T03:41:57.269Z,5.50
2018-07-21T03:44:26.736Z,5.75
2018-07-21T05:06:46.059Z,6.22
2018-07-21T05:09:15.319Z,5.35
2018-07-21T05:11:44.508Z,5.87
2018-07-21T05:14:13.728Z,6.20
2018-07-21T05:16:42.683Z,5.45
2018-07-21T05:19:11.897Z,5.85
2018-07-21T05:21:41.097Z,5.42
2018-07-21T05:24:10.288Z,6.47
2018-07-21T05:26:39.522Z,5.58
2018-07-21T05:29:08.740Z,5.50
2018-07-21T05:31:37.924Z,5.87
2018-07-21T05:34:07.206Z,6.10
2018-07-21T05:36:36.439Z,5.92
2018-07-21T05:39:09.071Z,5.65
2018-07-21T05:41:38.272Z,5.75
2018-07-21T05:44:07.527Z,5.78
2018-07-21T05:46:37.164Z,5.33
2018-07-21T05:49:06.791Z,6.12
2018-07-21T05:51:36.019Z,5.87
2018-07-21T05:54:05.228Z,5.78
2018-07-21T05:56:34.440Z,5.33
2018-07-21T05:59:03.674Z,5.55
2018-07-21T06:01:32.872Z,5.60
2018-07-21T06:04:02.157Z,5.55
2018-07-21T06:06:31.400Z,5.42
2018-07-21T06:09:00.656Z,5.80
2018-07-21T06:11:29.861Z,6.10
2018-07-21T06:13:59.099Z,5.62
2018-07-21T06:16:28.315Z,5.87
2018-07-21T06:18:57.494Z,6.70
2018-07-21T06:21:26.732Z,6.08
2018-07-21T06:23:56.005Z,6.28
2018-07-21T06:26:25.245Z,6.20
2018-07-21T06:28:54.579Z,7.12
2018-07-21T06:31:23.796Z,6.45
2018-07-21T06:33:53.162Z,6.58
2018-07-21T06:36:22.745Z,6.70
2018-07-21T06:38:51.960Z,6.50
2018-07-21T06:41:21.179Z,5.97
2018-07-21T06:43:50.426Z,5.62
2018-07-21T06:46:19.714Z,6.12
2018-07-21T06:48:48.946Z,5.75
2018-07-21T06:51:18.178Z,6.05
2018-07-21T06:53:47.459Z,5.95
2018-07-21T06:56:16.667Z,6.00
2018-07-21T06:58:45.867Z,6.30
2018-07-21T07:01:15.920Z,6.12
2018-07-21T07:03:45.160Z,6.00
2018-07-21T07:06:14.408Z,6.12
2018-07-21T07:08:43.646Z,6.12
2018-07-21T07:11:13.206Z,6.00
2018-07-21T07:13:42.413Z,5.83
2018-07-21T07:16:11.630Z,6.33
2018-07-21T07:18:40.864Z,6.20
2018-07-21T07:21:10.151Z,6.08
2018-07-21T07:23:39.360Z,6.90
2018-07-21T07:26:08.616Z,6.45
2018-07-21T07:28:37.844Z,5.85
2018-07-21T07:31:07.105Z,6.55
2018-07-21T07:33:36.323Z,6.47
2018-07-21T07:36:05.520Z,6.67
2018-07-21T07:38:34.735Z,6.58
2018-07-21T07:41:03.974Z,7.45
2018-07-21T07:43:33.179Z,7.40
2018-07-21T07:46:02.405Z,7.97
2018-07-21T07:48:31.631Z,7.80
2018-07-21T07:51:00.892Z,7.92
2018-07-21T07:53:30.170Z,8.38
2018-07-21T07:55:59.424Z,8.35
2018-07-21T07:58:28.657Z,8.03
2018-07-21T08:00:57.966Z,9.15
2018-07-21T08:03:27.259Z,8.88
2018-07-21T08:05:56.493Z,9.43
2018-07-21T08:08:25.784Z,8.95
2018-07-21T08:10:54.984Z,9.68
2018-07-21T08:13:24.197Z,9.20
2018-07-21T08:15:53.599Z,9.60
2018-07-21T08:18:22.857Z,9.60
2018-07-21T08:20:52.083Z,10.10
2018-07-21T08:23:21.340Z,9.80
2018-07-21T08:25:50.577Z,10.18
2018-07-21T08:28:19.869Z,10.15
2018-07-21T08:30:49.263Z,10.60
2018-07-21T08:33:18.591Z,12.05
2018-07-21T08:35:47.861Z,10.15
2018-07-21T08:38:17.087Z,9.18
2018-07-21T08:40:46.333Z,10.58
2018-07-21T08:43:16.311Z,10.10
2018-07-21T08:45:45.613Z,10.58
2018-07-21T08:48:14.873Z,10.20
2018-07-21T08:50:44.480Z,11.68
2018-07-21T08:53:13.757Z,10.30
2018-07-21T08:55:43.054Z,11.05
2018-07-21T08:58:12.516Z,11.45
2018-07-21T09:00:41.818Z,10.58
2018-07-21T09:03:11.109Z,11.10
2018-07-21T09:05:40.115Z,11.43
2018-07-21T09:08:09.406Z,11.10
2018-07-21T09:10:38.800Z,11.70
2018-07-21T09:13:08.180Z,12.20
2018-07-21T09:15:37.350Z,12.70
2018-07-21T09:18:06.604Z,11.57
2018-07-21T09:20:35.848Z,12.13
2018-07-21T09:23:05.232Z,11.73
2018-07-21T09:25:34.452Z,12.98
2018-07-21T09:28:03.655Z,12.45
2018-07-21T09:30:32.896Z,12.37
2018-07-21T09:33:02.205Z,11.73
2018-07-21T09:35:31.452Z,11.12
2018-07-21T09:38:00.688Z,11.00
2018-07-21T09:40:29.978Z,10.95
2018-07-21T09:42:59.202Z,11.53
2018-07-21T09:45:28.465Z,12.35
2018-07-21T09:47:57.686Z,11.20
2018-07-21T09:50:26.997Z,12.07
2018-07-21T09:52:56.270Z,11.90
2018-07-21T09:55:25.544Z,11.85
2018-07-21T09:57:54.943Z,11.73
2018-07-21T10:00:29.600Z,12.43
2018-07-21T10:02:58.821Z,12.95
2018-07-21T10:05:28.072Z,13.53
2018-07-21T10:07:57.309Z,14.25
2018-07-21T10:10:26.553Z,13.22
2018-07-21T10:12:55.843Z,14.38
2018-07-21T10:15:25.141Z,14.23
2018-07-21T10:17:54.554Z,13.62
2018-07-21T10:20:23.776Z,14.18
2018-07-21T10:22:53.008Z,15.13
2018-07-21T10:25:27.596Z,14.73
2018-07-21T10:28:02.052Z,14.40
2018-07-21T10:30:31.256Z,15.10
2018-07-21T10:33:00.496Z,15.80
2018-07-21T10:35:29.718Z,14.58
2018-07-21T10:37:58.982Z,13.45
2018-07-21T10:40:28.241Z,14.73
2018-07-21T10:42:57.503Z,13.90
2018-07-21T10:45:26.744Z,14.07
2018-07-21T10:47:55.951Z,14.05
2018-07-21T10:50:25.276Z,13.48
2018-07-21T10:52:54.536Z,12.80
2018-07-21T10:55:23.755Z,12.18
2018-07-21T10:57:53.196Z,12.35
2018-07-21T11:00:22.533Z,10.60
2018-07-21T11:02:51.724Z,10.53
2018-07-21T11:05:21.044Z,10.80
2018-07-21T11:07:50.297Z,10.25
2018-07-21T11:10:19.571Z,10.72
2018-07-21T11:12:48.822Z,10.25
2018-07-21T11:15:18.148Z,10.58
2018-07-21T11:17:47.349Z,10.75
2018-07-21T11:20:16.616Z,9.23
2018-07-21T11:22:45.853Z,11.85
2018-07-21T11:25:15.081Z,12.33
2018-07-21T11:27:44.341Z,11.55
2018-07-21T11:30:13.571Z,12.95
2018-07-21T11:32:43.084Z,13.28
2018-07-21T11:35:12.464Z,12.93
2018-07-21T11:37:41.667Z,13.32
2018-07-21T11:40:11.831Z,13.80
2018-07-21T11:42:41.098Z,14.47
2018-07-21T11:45:10.307Z,13.65
2018-07-21T11:47:41.643Z,12.35
2018-07-21T11:50:10.897Z,13.38
2018-07-21T11:52:40.134Z,13.90
2018-07-21T11:55:09.327Z,12.43
2018-07-21T11:57:38.573Z,12.88
2018-07-21T12:00:07.985Z,12.15
2018-07-21T12:02:37.201Z,12.13
2018-07-21T12:05:06.494Z,23.05
2018-07-21T12:07:35.443Z,12.23
2018-07-21T12:10:04.825Z,12.28
2018-07-21T12:12:34.203Z,12.95
2018-07-21T12:15:03.469Z,12.50
2018-07-21T12:17:32.793Z,11.70
2018-07-21T12:20:02.066Z,14.78
2018-07-21T12:22:31.325Z,12.55
2018-07-21T12:25:00.580Z,13.22
2018-07-21T12:27:29.619Z,10.72
2018-07-21T12:29:58.967Z,10.93
2018-07-21T12:32:28.187Z,9.35
2018-07-21T12:34:57.417Z,12.05
2018-07-21T12:37:26.448Z,13.40
2018-07-21T12:39:55.777Z,13.08
2018-07-21T12:42:25.000Z,12.10
2018-07-21T12:44:54.338Z,14.20
2018-07-21T12:47:23.577Z,16.77
2018-07-21T12:49:52.601Z,14.95
2018-07-21T12:52:21.821Z,13.78
2018-07-21T12:54:51.088Z,15.23
2018-07-21T12:57:20.361Z,18.20
2018-07-21T12:59:49.609Z,19.42
2018-07-21T13:02:18.825Z,19.55
2018-07-21T13:04:48.063Z,17.90
2018-07-21T13:07:17.298Z,19.12
2018-07-21T13:09:46.637Z,16.75
2018-07-21T13:12:15.831Z,15.50
2018-07-21T13:14:45.089Z,15.75
2018-07-21T13:17:14.357Z,14.87
2018-07-21T13:19:43.721Z,16.20
2018-07-21T13:22:12.957Z,14.47
2018-07-21T13:24:42.309Z,14.50
2018-07-21T13:27:11.534Z,15.10
2018-07-21T13:29:40.790Z,16.40
2018-07-21T13:32:10.313Z,16.55
2018-07-21T13:34:39.552Z,15.65
2018-07-21T13:37:08.751Z,16.02
2018-07-21T13:39:38.085Z,15.90
2018-07-21T13:42:07.503Z,15.85
2018-07-21T13:44:36.724Z,15.23
2018-07-21T13:47:06.073Z,14.10
2018-07-21T13:49:35.304Z,14.05
2018-07-21T13:52:04.505Z,18.80
2018-07-21T13:54:33.758Z,14.15
2018-07-21T13:57:03.011Z,14.83
2018-07-21T13:59:32.353Z,13.95
2018-07-21T14:02:01.606Z,14.58
2018-07-21T14:04:30.856Z,13.80
2018-07-21T14:07:00.175Z,11.05
2018-07-21T14:09:29.411Z,12.40
2018-07-21T14:11:58.628Z,11.28
2018-07-21T14:14:27.869Z,10.88
2018-07-21T14:16:57.206Z,11.05
2018-07-21T14:19:26.473Z,11.60
2018-07-21T14:21:56.118Z,11.05
2018-07-21T14:24:25.632Z,12.55
2018-07-21T14:26:54.891Z,12.00
2018-07-21T14:29:24.117Z,11.45
2018-07-21T14:31:53.351Z,11.78
2018-07-21T14:34:22.551Z,11.22
2018-07-21T14:36:51.903Z,11.50
2018-07-21T14:39:21.148Z,11.88
2018-07-21T14:41:50.470Z,11.88
2018-07-21T14:44:19.701Z,11.43
2018-07-21T14:46:48.919Z,11.22
2018-07-21T14:49:18.156Z,11.28
2018-07-21T14:51:47.416Z,10.80
2018-07-21T14:54:16.653Z,16.27
2018-07-21T14:56:45.947Z,11.25
2018-07-21T14:59:15.149Z,10.65
2018-07-21T15:01:44.575Z,10.20
2018-07-21T15:04:13.822Z,10.23
2018-07-21T15:06:43.054Z,10.65
2018-07-21T15:09:13.063Z,12.63
2018-07-21T15:11:42.470Z,10.23
2018-07-21T15:14:11.708Z,10.93
2018-07-21T15:16:41.137Z,12.23
2018-07-21T15:19:10.375Z,12.07
2018-07-21T15:21:39.660Z,11.83
2018-07-21T15:24:08.940Z,11.35
2018-07-21T15:26:38.155Z,10.93
2018-07-21T15:29:07.457Z,12.30
2018-07-21T15:31:36.692Z,11.97
2018-07-21T15:34:05.932Z,11.50
2018-07-21T15:36:35.187Z,11.03
2018-07-21T15:39:06.299Z,11.75
2018-07-21T15:41:35.536Z,10.82
2018-07-21T15:44:04.804Z,12.28
2018-07-21T15:46:34.068Z,11.55
2018-07-21T15:49:03.249Z,10.90
2018-07-21T15:51:32.499Z,11.15
2018-07-21T15:54:01.797Z,11.43
2018-07-21T15:56:31.027Z,11.30
2018-07-21T15:59:00.237Z,10.72
2018-07-21T16:01:29.529Z,10.40
2018-07-21T16:03:58.776Z,10.65
2018-07-21T16:06:27.992Z,9.93
2018-07-21T16:08:57.245Z,9.80
2018-07-21T16:11:26.260Z,9.80
2018-07-21T16:13:55.462Z,9.48
2018-07-21T16:16:24.669Z,9.20
2018-07-21T16:18:54.054Z,9.63
2018-07-21T16:21:23.326Z,9.35
2018-07-21T16:23:52.573Z,9.40
2018-07-21T16:26:21.865Z,8.70
2018-07-21T16:28:51.103Z,9.48
2018-07-21T16:31:20.581Z,9.58
2018-07-21T16:33:49.890Z,10.35
2018-07-21T16:36:19.525Z,9.18
2018-07-21T16:38:48.807Z,10.20
2018-07-21T16:41:18.086Z,10.60
2018-07-21T16:43:47.328Z,10.78
2018-07-21T16:46:16.605Z,10.43
2018-07-21T16:48:45.919Z,10.60
2018-07-21T16:51:15.147Z,10.00
2018-07-21T16:53:44.110Z,10.60
2018-07-21T16:56:13.454Z,10.32
2018-07-21T16:58:42.671Z,10.35
2018-07-21T17:01:11.913Z,10.58
2018-07-21T17:03:41.133Z,10.43
2018-07-21T17:06:10.362Z,9.20
2018-07-21T17:08:39.595Z,9.63
2018-07-21T17:11:08.867Z,9.23
2018-07-21T17:13:38.064Z,8.70
2018-07-21T17:16:07.308Z,9.95
2018-07-21T17:18:36.697Z,9.93
2018-07-21T17:21:05.964Z,9.75
2018-07-21T17:23:34.941Z,9.48
2018-07-21T17:26:04.224Z,9.23
2018-07-21T17:28:33.666Z,8.40
2018-07-21T17:31:02.917Z,9.38
2018-07-21T17:33:32.260Z,9.40
2018-07-21T17:36:01.508Z,9.58
2018-07-21T17:38:30.767Z,9.10
2018-07-21T17:41:00.397Z,9.68
2018-07-21T17:43:29.635Z,10.00
2018-07-21T17:45:59.022Z,9.88
2018-07-21T17:48:28.241Z,10.03
2018-07-21T17:50:57.526Z,9.38
2018-07-21T17:53:26.525Z,9.53
2018-07-21T17:55:55.759Z,9.38
2018-07-21T17:58:25.023Z,10.20
2018-07-21T18:00:54.305Z,10.32
2018-07-21T18:03:23.556Z,10.18
2018-07-21T18:05:52.853Z,9.80
2018-07-21T18:08:22.083Z,9.60
2018-07-21T18:10:51.344Z,9.68
2018-07-21T18:13:20.581Z,10.50
2018-07-21T18:15:49.852Z,10.13
2018-07-21T18:18:19.093Z,10.13
2018-07-21T18:20:48.346Z,10.08
2018-07-21T18:23:17.953Z,9.43
2018-07-21T18:25:47.220Z,11.03
2018-07-21T18:28:16.420Z,10.32
2018-07-21T18:30:45.669Z,11.20
2018-07-21T18:33:14.848Z,11.45
2018-07-21T18:35:44.066Z,11.00
2018-07-21T18:38:13.245Z,12.25
2018-07-21T18:40:42.505Z,11.22
2018-07-21T18:43:11.707Z,11.65
2018-07-21T18:45:40.937Z,11.18
2018-07-21T18:48:10.133Z,11.40
2018-07-21T18:50:39.385Z,11.45
2018-07-21T18:53:09.204Z,11.88
2018-07-21T18:55:38.437Z,11.85
2018-07-21T18:58:07.632Z,12.25
2018-07-21T19:00:36.889Z,12.45
2018-07-21T19:03:06.112Z,12.18
2018-07-21T19:05:35.360Z,12.15
2018-07-21T19:08:04.583Z,11.68
2018-07-21T19:10:33.785Z,13.22
2018-07-21T19:13:03.024Z,12.95
2018-07-21T19:15:37.432Z,12.63
2018-07-21T19:18:06.725Z,14.28
2018-07-21T19:20:41.412Z,12.63
2018-07-21T19:23:10.686Z,11.75
2018-07-21T19:25:45.248Z,11.63
2018-07-21T19:28:20.538Z,11.28
2018-07-21T19:30:51.134Z,12.05
2018-07-21T19:33:24.248Z,13.32
2018-07-21T19:35:53.460Z,13.00
2018-07-21T19:38:22.692Z,13.93
2018-07-21T19:40:51.914Z,15.00
2018-07-21T19:43:21.222Z,14.15
2018-07-21T19:45:50.420Z,14.33
2018-07-21T19:48:19.728Z,14.90
2018-07-21T19:50:48.916Z,15.05
2018-07-21T19:53:18.183Z,17.40
2018-07-21T19:55:47.411Z,17.55
2018-07-21T19:58:16.830Z,18.25
2018-07-21T20:00:46.088Z,17.87
2018-07-21T20:03:15.341Z,18.80
2018-07-21T20:05:44.711Z,17.82
2018-07-21T20:08:13.989Z,18.25
2018-07-21T20:10:43.185Z,18.25
2018-07-21T20:13:15.368Z,19.15
2018-07-21T20:15:44.632Z,15.40
2018-07-21T20:18:13.937Z,13.93
2018-07-21T20:20:43.163Z,15.83
2018-07-21T20:23:12.450Z,15.08
2018-07-21T20:25:41.691Z,16.25
2018-07-21T20:28:10.985Z,14.65
2018-07-21T20:30:40.193Z,15.50
2018-07-21T20:33:09.471Z,14.45
2018-07-21T20:35:38.672Z,13.80
2018-07-21T20:38:07.909Z,11.68
2018-07-21T20:40:37.289Z,13.20
2018-07-21T20:43:06.579Z,13.78
2018-07-21T20:45:35.786Z,22.25
2018-07-21T20:48:05.024Z,20.27
2018-07-21T20:50:34.354Z,18.30
2018-07-21T20:53:03.653Z,17.98
2018-07-21T20:55:32.897Z,19.82
2018-07-21T20:58:02.671Z,17.90
2018-07-21T21:00:32.865Z,18.65
2018-07-21T21:03:02.245Z,17.82
2018-07-21T21:05:31.545Z,17.60
2018-07-21T21:08:00.741Z,16.27
2018-07-21T21:10:29.957Z,15.85
2018-07-21T21:12:59.201Z,15.88
2018-07-21T21:15:28.432Z,15.80
2018-07-21T21:17:57.684Z,17.30
2018-07-21T21:20:26.922Z,18.32
2018-07-21T21:22:56.199Z,17.45
2018-07-21T21:25:25.421Z,17.32
2018-07-21T21:27:54.728Z,17.37
2018-07-21T21:30:23.928Z,18.20
2018-07-21T21:32:53.188Z,16.62
2018-07-21T21:35:22.457Z,15.75
2018-07-21T21:37:51.641Z,16.07
2018-07-21T21:40:20.853Z,15.15
2018-07-21T21:42:50.223Z,16.67
2018-07-21T21:45:19.520Z,16.42
2018-07-21T21:47:48.821Z,16.65
2018-07-21T21:50:18.024Z,16.48
2018-07-21T21:52:47.260Z,17.70
2018-07-21T21:55:16.511Z,16.95
2018-07-21T21:57:45.688Z,16.32
2018-07-21T22:00:15.105Z,17.20
2018-07-21T22:02:44.527Z,16.52
2018-07-21T22:05:14.123Z,15.93
2018-07-21T22:07:43.327Z,17.52
2018-07-21T22:10:12.612Z,16.15
2018-07-21T22:12:41.877Z,17.37
2018-07-21T22:15:15.821Z,16.60
2018-07-21T22:17:45.170Z,18.00
2018-07-21T22:20:14.437Z,16.82
2018-07-21T22:22:43.914Z,16.55
2018-07-21T22:25:13.195Z,16.52
2018-07-21T22:27:42.186Z,16.15
2018-07-21T22:30:18.432Z,16.57
2018-07-21T22:32:47.692Z,15.58
2018-07-21T22:35:17.385Z,15.88
2018-07-21T22:37:46.647Z,16.12
2018-07-21T22:40:15.892Z,15.95
2018-07-21T22:42:45.124Z,16.17
2018-07-21T22:45:14.338Z,16.10
2018-07-21T22:47:43.552Z,15.98
2018-07-21T22:50:12.891Z,15.70
2018-07-21T22:52:42.103Z,15.65
2018-07-21T22:55:11.338Z,15.05
2018-07-21T22:57:40.665Z,16.05
2018-07-21T23:00:10.134Z,17.30
2018-07-21T23:02:40.164Z,16.35
2018-07-21T23:05:09.840Z,14.87
2018-07-21T23:07:39.068Z,15.18
2018-07-21T23:10:08.550Z,16.20
2018-07-21T23:12:37.825Z,15.75
2018-07-21T23:15:08.446Z,16.80
2018-07-21T23:17:37.682Z,16.52
2018-07-21T23:20:08.247Z,16.67
2018-07-21T23:22:37.642Z,15.75
2018-07-21T23:25:07.081Z,15.20
2018-07-21T23:27:36.665Z,16.37
2018-07-21T23:30:06.200Z,16.62
2018-07-21T23:32:35.627Z,16.40
2018-07-21T23:35:04.970Z,16.25
2018-07-21T23:37:34.176Z,14.70
2018-07-21T23:40:03.426Z,15.38
2018-07-21T23:42:32.699Z,15.28
2018-07-21T23:45:01.972Z,15.05
2018-07-21T23:47:31.199Z,14.60
2018-07-21T23:50:00.697Z,14.07
2018-07-21T23:52:29.902Z,14.25
2018-07-21T23:54:59.108Z,13.85
2018-07-21T23:57:28.352Z,14.78
2018-07-21T23:59:57.552Z,14.30
